Florence, Vermont
Current Conditions -  °F | °C
As of 5:55 PM on Thursday 27 Nov 2014 (Local Time) from KRUT Reporting Station
Overcast Overcast  
Wind Chill: 21°   Ceiling: 3200
Heat Index: 27°   Visibility: 10mi
Dew Point: 21°   Wind: 5mph
Humidity: 80%   Direction: 360°N
Pressure: 29.98"   Gusts: NA
Location:  43.72°N, 73.06°W
Report Text: KRUT 272255Z 36004KT 10SM OVC032 M03/M06 A2998 RMK AO1
Loading
Personal Weather Stations






























Interactive Weather Map New forecast layout! Learn more

10-Day Weather Forecast

Advertisements
Track Severe Weather on mobile